createdAt,value
2017-02-19T00:00:14.452Z,961.96
2017-02-19T00:01:13.955Z,961.97
2017-02-19T00:02:13.118Z,961.96
2017-02-19T00:03:14.689Z,961.96
2017-02-19T00:04:13.367Z,961.98
2017-02-19T00:05:12.185Z,961.97
2017-02-19T00:06:12.331Z,961.94
2017-02-19T00:07:14.715Z,961.97
2017-02-19T00:08:14.866Z,961.93
2017-02-19T00:09:13.414Z,961.94
2017-02-19T00:10:14.044Z,961.93
2017-02-19T00:11:14.092Z,961.92
2017-02-19T00:12:14.893Z,961.95
2017-02-19T00:13:13.708Z,961.99
2017-02-19T00:14:14.376Z,961.98
2017-02-19T00:15:13.152Z,961.97
2017-02-19T00:16:13.493Z,961.95
2017-02-19T00:17:14.822Z,961.97
2017-02-19T00:18:12.868Z,961.96
2017-02-19T00:19:12.647Z,961.93
2017-02-19T00:20:13.437Z,961.97
2017-02-19T00:21:13.585Z,961.95
2017-02-19T00:22:12.551Z,961.93
2017-02-19T00:23:14.242Z,961.94
2017-02-19T00:24:13.139Z,961.95
2017-02-19T00:25:15.255Z,961.97
2017-02-19T00:26:14.736Z,962.01
2017-02-19T00:27:14.779Z,962.00
2017-02-19T00:28:13.269Z,961.96
2017-02-19T00:29:13.998Z,961.92
2017-02-19T00:30:13.918Z,961.98
2017-02-19T00:31:15.240Z,961.98
2017-02-19T00:32:15.047Z,962.01
2017-02-19T00:33:13.969Z,961.97
2017-02-19T00:34:13.144Z,962.00
2017-02-19T00:35:13.011Z,962.02
2017-02-19T00:36:12.792Z,962.01
2017-02-19T00:37:13.928Z,962.02
2017-02-19T00:38:12.463Z,962.01
2017-02-19T00:39:13.988Z,962.02
2017-02-19T00:40:13.710Z,962.03
2017-02-19T00:41:11.662Z,962.01
2017-02-19T00:42:15.099Z,961.98
2017-02-19T00:43:11.987Z,961.99
2017-02-19T00:44:13.658Z,961.97
2017-02-19T00:45:12.372Z,962.00
2017-02-19T00:46:13.923Z,962.01
2017-02-19T00:47:13.046Z,961.99
2017-02-19T00:48:14.560Z,962.03
2017-02-19T00:49:13.215Z,962.00
2017-02-19T00:50:14.805Z,962.03
2017-02-19T00:51:12.336Z,961.97
2017-02-19T00:52:12.284Z,962.01
2017-02-19T00:53:12.886Z,961.95
2017-02-19T00:54:13.546Z,961.94
2017-02-19T00:55:13.156Z,961.95
2017-02-19T00:56:13.783Z,961.93
2017-02-19T00:57:13.538Z,961.98
2017-02-19T00:58:14.265Z,961.95
2017-02-19T00:59:14.837Z,961.95
2017-02-19T01:00:12.401Z,961.95
2017-02-19T01:01:13.060Z,962.00
2017-02-19T01:02:13.474Z,961.95
2017-02-19T01:03:13.256Z,961.92
2017-02-19T01:04:14.413Z,961.96
2017-02-19T01:05:14.872Z,961.97
2017-02-19T01:06:12.556Z,961.97
2017-02-19T01:07:14.215Z,961.94
2017-02-19T01:08:13.937Z,961.97
2017-02-19T01:09:13.684Z,962.00
2017-02-19T01:10:13.949Z,962.03
2017-02-19T01:11:13.108Z,962.05
2017-02-19T01:12:14.944Z,962.02
2017-02-19T01:13:13.180Z,962.01
2017-02-19T01:14:13.434Z,962.01
2017-02-19T01:15:12.990Z,962.03
2017-02-19T01:16:13.723Z,962.03
2017-02-19T01:17:13.108Z,962.04
2017-02-19T01:18:12.720Z,962.07
2017-02-19T01:19:13.315Z,962.02
2017-02-19T01:20:14.161Z,962.03
2017-02-19T01:21:13.850Z,962.04
2017-02-19T01:22:14.551Z,962.06
2017-02-19T01:23:14.390Z,962.05
2017-02-19T01:24:13.375Z,962.02
2017-02-19T01:25:12.983Z,962.04
2017-02-19T01:26:14.069Z,962.05
2017-02-19T01:27:15.923Z,962.03
2017-02-19T01:28:13.843Z,962.03
2017-02-19T01:29:12.645Z,962.02
2017-02-19T01:30:14.123Z,962.02
2017-02-19T01:31:14.876Z,962.05
2017-02-19T01:32:13.536Z,962.05
2017-02-19T01:33:15.196Z,962.01
2017-02-19T01:34:14.455Z,961.98
2017-02-19T01:35:12.201Z,961.99
2017-02-19T01:36:11.443Z,961.96
2017-02-19T01:37:14.000Z,961.96
2017-02-19T01:38:14.642Z,961.95
2017-02-19T01:39:11.885Z,961.88
2017-02-19T01:40:11.944Z,961.88
2017-02-19T01:41:14.278Z,961.92
2017-02-19T01:42:13.619Z,961.89
2017-02-19T01:43:12.266Z,961.93
2017-02-19T01:44:13.787Z,961.90
2017-02-19T01:45:12.912Z,961.91
2017-02-19T01:46:13.652Z,961.84
2017-02-19T01:47:14.564Z,961.85
2017-02-19T01:48:14.068Z,961.83
2017-02-19T01:49:15.147Z,961.84
2017-02-19T01:50:14.285Z,961.83
2017-02-19T01:51:14.087Z,961.86
2017-02-19T01:52:14.478Z,961.82
2017-02-19T01:53:13.858Z,961.83
2017-02-19T01:54:13.408Z,961.80
2017-02-19T01:55:12.987Z,961.78
2017-02-19T01:56:12.821Z,961.83
2017-02-19T01:57:14.312Z,961.76
2017-02-19T01:58:12.813Z,961.78
2017-02-19T01:59:12.997Z,961.79
2017-02-19T02:00:14.051Z,961.78
2017-02-19T02:01:13.357Z,961.78
2017-02-19T02:02:13.283Z,961.73
2017-02-19T02:03:12.811Z,961.73
2017-02-19T02:04:13.057Z,961.75
2017-02-19T02:05:12.911Z,961.73
2017-02-19T02:06:12.777Z,961.75
2017-02-19T02:07:13.761Z,961.75
2017-02-19T02:08:15.174Z,961.77
2017-02-19T02:09:13.964Z,961.75
2017-02-19T02:10:13.743Z,961.76
2017-02-19T02:11:13.486Z,961.79
2017-02-19T02:12:13.252Z,961.78
2017-02-19T02:13:13.452Z,961.74
2017-02-19T02:14:14.509Z,961.78
2017-02-19T02:15:15.138Z,961.79
2017-02-19T02:16:13.158Z,961.77
2017-02-19T02:17:14.184Z,961.78
2017-02-19T02:18:14.173Z,961.82
2017-02-19T02:19:12.871Z,961.80
2017-02-19T02:20:14.624Z,961.82
2017-02-19T02:21:14.151Z,961.79
2017-02-19T02:22:12.267Z,961.75
2017-02-19T02:23:11.809Z,961.78
2017-02-19T02:24:13.147Z,961.78
2017-02-19T02:25:13.869Z,961.76
2017-02-19T02:26:13.005Z,961.71
2017-02-19T02:27:14.274Z,961.74
2017-02-19T02:28:13.274Z,961.68
2017-02-19T02:29:12.849Z,961.75
2017-02-19T02:30:12.489Z,961.73
2017-02-19T02:31:15.520Z,961.73
2017-02-19T02:32:12.665Z,961.75
2017-02-19T02:33:13.791Z,961.72
2017-02-19T02:34:14.550Z,961.72
2017-02-19T02:35:13.952Z,961.75
2017-02-19T02:36:15.484Z,961.76
2017-02-19T02:37:13.537Z,961.75
2017-02-19T02:38:13.800Z,961.68
2017-02-19T02:39:14.736Z,961.70
2017-02-19T02:40:12.831Z,961.74
2017-02-19T02:41:14.738Z,961.69
2017-02-19T02:42:13.723Z,961.76
2017-02-19T02:43:16.430Z,961.70
2017-02-19T02:44:13.728Z,961.72
2017-02-19T02:45:16.717Z,961.73
2017-02-19T02:46:12.884Z,961.71
2017-02-19T02:47:13.949Z,961.71
2017-02-19T02:48:12.888Z,961.71
2017-02-19T02:49:13.549Z,961.68
2017-02-19T02:50:14.155Z,961.69
2017-02-19T02:51:13.069Z,961.68
2017-02-19T02:52:14.544Z,961.67
2017-02-19T02:53:16.262Z,961.67
2017-02-19T02:54:12.552Z,961.68
2017-02-19T02:55:13.894Z,961.66
2017-02-19T02:56:13.692Z,961.67
2017-02-19T02:57:13.919Z,961.66
2017-02-19T02:58:12.962Z,961.66
2017-02-19T02:59:12.755Z,961.64
2017-02-19T03:00:12.896Z,961.64
2017-02-19T03:01:12.496Z,961.64
2017-02-19T03:02:13.898Z,961.60
2017-02-19T03:03:12.762Z,961.59
2017-02-19T03:04:12.692Z,961.56
2017-02-19T03:05:13.503Z,961.59
2017-02-19T03:06:13.533Z,961.58
2017-02-19T03:07:14.156Z,961.56
2017-02-19T03:08:14.009Z,961.54
2017-02-19T03:09:12.676Z,961.58
2017-02-19T03:10:13.979Z,961.56
2017-02-19T03:11:13.069Z,961.58
2017-02-19T03:12:14.394Z,961.59
2017-02-19T03:13:12.765Z,961.58
2017-02-19T03:14:13.021Z,961.60
2017-02-19T03:15:12.921Z,961.63
2017-02-19T03:16:13.551Z,961.66
2017-02-19T03:17:13.690Z,961.64
2017-02-19T03:18:14.481Z,961.66
2017-02-19T03:19:14.969Z,961.64
2017-02-19T03:20:12.362Z,961.69
2017-02-19T03:21:13.943Z,961.67
2017-02-19T03:22:14.010Z,961.69
2017-02-19T03:23:12.582Z,961.71
2017-02-19T03:24:13.239Z,961.71
2017-02-19T03:25:13.843Z,961.69
2017-02-19T03:26:13.562Z,961.70
2017-02-19T03:27:14.168Z,961.69
2017-02-19T03:28:13.226Z,961.73
2017-02-19T03:29:12.156Z,961.70
2017-02-19T03:30:14.895Z,961.69
2017-02-19T03:31:13.550Z,961.68
2017-02-19T03:32:14.571Z,961.70
2017-02-19T03:33:13.613Z,961.70
2017-02-19T03:34:13.313Z,961.65
2017-02-19T03:35:12.642Z,961.63
2017-02-19T03:36:13.875Z,961.67
2017-02-19T03:37:13.300Z,961.66
2017-02-19T03:38:11.246Z,961.67
2017-02-19T03:39:14.153Z,961.66
2017-02-19T03:40:13.749Z,961.63
2017-02-19T03:41:12.421Z,961.64
2017-02-19T03:42:14.492Z,961.66
2017-02-19T03:43:13.612Z,961.63
2017-02-19T03:44:11.295Z,961.61
2017-02-19T03:45:13.000Z,961.63
2017-02-19T03:46:13.623Z,961.67
2017-02-19T03:47:15.257Z,961.69
2017-02-19T03:48:12.917Z,961.69
2017-02-19T03:49:13.887Z,961.66
2017-02-19T03:50:13.882Z,961.66
2017-02-19T03:51:12.762Z,961.68
2017-02-19T03:52:12.446Z,961.71
2017-02-19T03:53:13.415Z,961.66
2017-02-19T03:54:13.497Z,961.70
2017-02-19T03:55:14.120Z,961.68
2017-02-19T03:56:10.281Z,961.66
2017-02-19T03:57:14.243Z,961.71
2017-02-19T03:58:12.768Z,961.70
2017-02-19T03:59:11.918Z,961.66
2017-02-19T04:00:14.200Z,961.65
2017-02-19T04:01:15.943Z,961.69
2017-02-19T04:02:15.105Z,961.64
2017-02-19T04:03:13.211Z,961.65
2017-02-19T04:04:14.019Z,961.68
2017-02-19T04:05:15.545Z,961.65
2017-02-19T04:06:14.208Z,961.62
2017-02-19T04:07:13.898Z,961.60
2017-02-19T04:08:12.625Z,961.61
2017-02-19T04:09:12.211Z,961.60
2017-02-19T04:10:12.671Z,961.61
2017-02-19T04:11:13.367Z,961.64
2017-02-19T04:12:14.658Z,961.59
2017-02-19T04:13:12.560Z,961.62
2017-02-19T04:14:14.040Z,961.60
2017-02-19T04:15:13.679Z,961.62
2017-02-19T04:16:13.345Z,961.69
2017-02-19T04:17:13.974Z,961.64
2017-02-19T04:18:13.203Z,961.68
2017-02-19T04:19:13.189Z,961.68
2017-02-19T04:20:14.886Z,961.61
2017-02-19T04:21:13.054Z,961.58
2017-02-19T04:22:13.430Z,961.63
2017-02-19T04:23:13.364Z,961.57
2017-02-19T04:24:13.041Z,961.62
2017-02-19T04:25:12.698Z,961.61
2017-02-19T04:26:15.216Z,961.59
2017-02-19T04:27:15.440Z,961.55
2017-02-19T04:28:13.473Z,961.60
2017-02-19T04:29:17.299Z,961.58
2017-02-19T04:30:12.798Z,961.58
2017-02-19T04:31:12.413Z,961.55
2017-02-19T04:32:13.237Z,961.51
2017-02-19T04:33:13.383Z,961.52
2017-02-19T04:34:14.379Z,961.47
2017-02-19T04:35:13.876Z,961.49
2017-02-19T04:36:15.570Z,961.49
2017-02-19T04:37:13.404Z,961.51
2017-02-19T04:38:13.462Z,961.51
2017-02-19T04:39:12.979Z,961.53
2017-02-19T04:40:11.660Z,961.54
2017-02-19T04:41:13.605Z,961.50
2017-02-19T04:42:15.047Z,961.46
2017-02-19T04:43:12.558Z,961.47
2017-02-19T04:44:13.571Z,961.38
2017-02-19T04:45:14.084Z,961.38
2017-02-19T04:46:12.619Z,961.39
2017-02-19T04:47:14.187Z,961.40
2017-02-19T04:48:12.608Z,961.32
2017-02-19T04:49:13.676Z,961.39
2017-02-19T04:50:13.173Z,961.35
2017-02-19T04:51:14.514Z,961.32
2017-02-19T04:52:13.240Z,961.33
2017-02-19T04:53:13.898Z,961.30
2017-02-19T04:54:13.521Z,961.31
2017-02-19T04:55:13.216Z,961.40
2017-02-19T04:56:13.357Z,961.35
2017-02-19T04:57:14.585Z,961.38
2017-02-19T04:58:15.117Z,961.31
2017-02-19T04:59:13.294Z,961.34
2017-02-19T05:00:13.996Z,961.35
2017-02-19T05:01:13.760Z,961.33
2017-02-19T05:02:12.364Z,961.36
2017-02-19T05:03:14.942Z,961.32
2017-02-19T05:04:12.590Z,961.28
2017-02-19T05:05:13.276Z,961.26
2017-02-19T05:06:13.276Z,961.26
2017-02-19T05:07:12.738Z,961.24
2017-02-19T05:08:13.345Z,961.24
2017-02-19T05:09:14.808Z,961.19
2017-02-19T05:10:13.556Z,961.19
2017-02-19T05:11:13.189Z,961.17
2017-02-19T05:12:14.357Z,961.15
2017-02-19T05:13:13.352Z,961.08
2017-02-19T05:14:12.979Z,961.14
2017-02-19T05:15:12.657Z,961.13
2017-02-19T05:16:14.051Z,961.09
2017-02-19T05:17:12.748Z,961.13
2017-02-19T05:18:13.572Z,961.14
2017-02-19T05:19:14.060Z,961.10
2017-02-19T05:20:13.475Z,961.07
2017-02-19T05:21:13.275Z,961.08
2017-02-19T05:22:14.996Z,961.07
2017-02-19T05:23:13.531Z,961.08
2017-02-19T05:24:12.838Z,961.06
2017-02-19T05:25:18.751Z,961.05
2017-02-19T05:26:15.010Z,961.03
2017-02-19T05:27:18.532Z,961.03
2017-02-19T05:28:12.997Z,960.94
2017-02-19T05:29:12.544Z,961.02
2017-02-19T05:30:13.767Z,961.01
2017-02-19T05:31:12.463Z,960.97
2017-02-19T05:32:13.418Z,961.00
2017-02-19T05:33:12.971Z,961.03
2017-02-19T05:34:14.612Z,960.98
2017-02-19T05:35:14.997Z,960.98
2017-02-19T05:36:12.702Z,960.99
2017-02-19T05:37:14.304Z,961.01
2017-02-19T05:38:13.967Z,961.00
2017-02-19T05:39:12.455Z,961.04
2017-02-19T05:40:13.196Z,961.05
2017-02-19T05:41:13.906Z,961.07
2017-02-19T05:42:13.545Z,961.04
2017-02-19T05:43:13.107Z,961.03
2017-02-19T05:44:14.285Z,961.10
2017-02-19T05:45:13.907Z,961.03
2017-02-19T05:46:11.106Z,961.04
2017-02-19T05:47:14.916Z,961.05
2017-02-19T05:48:13.687Z,961.03
2017-02-19T05:49:15.257Z,961.05
2017-02-19T05:50:12.795Z,960.99
2017-02-19T05:51:13.685Z,961.07
2017-02-19T05:52:13.374Z,961.03
2017-02-19T05:53:13.426Z,960.98
2017-02-19T05:54:14.020Z,961.05
2017-02-19T05:55:12.769Z,961.04
2017-02-19T05:56:12.405Z,961.09
2017-02-19T05:57:15.130Z,961.12
2017-02-19T05:58:12.773Z,961.08
2017-02-19T05:59:13.359Z,961.13
2017-02-19T06:00:13.573Z,961.10
2017-02-19T06:01:13.264Z,961.07
2017-02-19T06:02:16.490Z,961.09
2017-02-19T06:03:13.479Z,961.08
2017-02-19T06:04:15.159Z,961.08
2017-02-19T06:05:12.734Z,961.05
2017-02-19T06:06:14.287Z,961.03
2017-02-19T06:07:13.320Z,961.04
2017-02-19T06:08:13.098Z,961.06
2017-02-19T06:09:14.676Z,961.09
2017-02-19T06:10:14.409Z,961.05
2017-02-19T06:11:12.981Z,961.12
2017-02-19T06:12:13.957Z,961.11
2017-02-19T06:13:11.753Z,961.12
2017-02-19T06:14:12.566Z,961.14
2017-02-19T06:15:14.236Z,961.17
2017-02-19T06:16:13.830Z,961.19
2017-02-19T06:17:12.595Z,961.18
2017-02-19T06:18:14.275Z,961.19
2017-02-19T06:19:12.753Z,961.20
2017-02-19T06:20:13.407Z,961.27
2017-02-19T06:21:14.404Z,961.27
2017-02-19T06:22:13.011Z,961.23
2017-02-19T06:23:11.702Z,961.26
2017-02-19T06:24:13.115Z,961.32
2017-02-19T06:25:12.724Z,961.32
2017-02-19T06:26:12.590Z,961.24
2017-02-19T06:27:14.641Z,961.26
2017-02-19T06:28:13.841Z,961.29
2017-02-19T06:29:12.553Z,961.30
2017-02-19T06:30:13.895Z,961.27
2017-02-19T06:31:13.592Z,961.29
2017-02-19T06:32:14.254Z,961.30
2017-02-19T06:33:12.740Z,961.30
2017-02-19T06:34:12.693Z,961.31
2017-02-19T06:35:14.319Z,961.34
2017-02-19T06:36:14.062Z,961.37
2017-02-19T06:37:11.658Z,961.38
2017-02-19T06:38:12.368Z,961.37
2017-02-19T06:39:12.457Z,961.35
2017-02-19T06:40:13.361Z,961.33
2017-02-19T06:41:13.369Z,961.37
2017-02-19T06:42:13.900Z,961.35
2017-02-19T06:43:12.478Z,961.37
2017-02-19T06:44:12.803Z,961.34
2017-02-19T06:45:10.662Z,961.36
2017-02-19T06:46:12.670Z,961.36
2017-02-19T06:47:13.358Z,961.34
2017-02-19T06:48:12.982Z,961.35
2017-02-19T06:49:12.757Z,961.35
2017-02-19T06:50:14.770Z,961.37
2017-02-19T06:51:13.352Z,961.42
2017-02-19T06:52:14.008Z,961.46
2017-02-19T06:53:14.249Z,961.41
2017-02-19T06:54:12.773Z,961.40
2017-02-19T06:55:13.335Z,961.43
2017-02-19T06:56:13.058Z,961.43
2017-02-19T06:57:15.399Z,961.38
2017-02-19T06:58:12.885Z,961.42
2017-02-19T06:59:13.207Z,961.45
2017-02-19T07:00:12.801Z,961.45
2017-02-19T07:01:12.523Z,961.43
2017-02-19T07:02:14.479Z,961.42
2017-02-19T07:03:13.180Z,961.42
2017-02-19T07:04:13.857Z,961.43
2017-02-19T07:05:14.427Z,961.42
2017-02-19T07:06:13.169Z,961.41
2017-02-19T07:07:13.296Z,961.40
2017-02-19T07:08:15.543Z,961.43
2017-02-19T07:09:13.179Z,961.42
2017-02-19T07:10:13.849Z,961.43
2017-02-19T07:11:11.928Z,961.41
2017-02-19T07:12:13.141Z,961.43
2017-02-19T07:13:13.933Z,961.44
2017-02-19T07:14:11.923Z,961.41
2017-02-19T07:15:12.969Z,961.42
2017-02-19T07:16:14.549Z,961.43
2017-02-19T07:17:14.187Z,961.40
2017-02-19T07:18:12.854Z,961.44
2017-02-19T07:19:13.519Z,961.44
2017-02-19T07:20:14.128Z,961.41
2017-02-19T07:21:12.676Z,961.44
2017-02-19T07:22:14.330Z,961.45
2017-02-19T07:23:14.727Z,961.44
2017-02-19T07:24:13.831Z,961.44
2017-02-19T07:25:12.597Z,961.47
2017-02-19T07:26:13.235Z,961.46
2017-02-19T07:27:13.370Z,961.49
2017-02-19T07:28:12.496Z,961.49
2017-02-19T07:29:14.776Z,961.54
2017-02-19T07:30:12.868Z,961.50
2017-02-19T07:31:12.369Z,961.56
2017-02-19T07:32:13.218Z,961.52
2017-02-19T07:33:12.217Z,961.49
2017-02-19T07:34:13.450Z,961.48
2017-02-19T07:35:13.451Z,961.50
2017-02-19T07:36:13.092Z,961.46
2017-02-19T07:37:12.647Z,961.47
2017-02-19T07:38:13.669Z,961.48
2017-02-19T07:39:13.323Z,961.53
2017-02-19T07:40:13.953Z,961.49
2017-02-19T07:41:12.544Z,961.51
2017-02-19T07:42:14.118Z,961.53
2017-02-19T07:43:12.656Z,961.48
2017-02-19T07:44:13.573Z,961.47
2017-02-19T07:45:13.169Z,961.50
2017-02-19T07:46:12.912Z,961.49
2017-02-19T07:47:13.724Z,961.48
2017-02-19T07:48:14.670Z,961.42
2017-02-19T07:49:13.225Z,961.44
2017-02-19T07:50:12.772Z,961.46
2017-02-19T07:51:13.512Z,961.44
2017-02-19T07:52:15.154Z,961.47
2017-02-19T07:53:14.441Z,961.42
2017-02-19T07:54:13.836Z,961.43
2017-02-19T07:55:12.740Z,961.40
2017-02-19T07:56:12.523Z,961.43
2017-02-19T07:57:15.237Z,961.43
2017-02-19T07:58:14.128Z,961.47
2017-02-19T07:59:12.643Z,961.40
2017-02-19T08:00:14.744Z,961.42
2017-02-19T08:01:13.271Z,961.42
2017-02-19T08:02:12.874Z,961.38
2017-02-19T08:03:10.984Z,961.39
2017-02-19T08:04:13.607Z,961.37
2017-02-19T08:05:13.146Z,961.41
2017-02-19T08:06:12.750Z,961.45
2017-02-19T08:07:14.503Z,961.40
2017-02-19T08:08:13.374Z,961.45
2017-02-19T08:09:12.958Z,961.40
2017-02-19T08:10:13.005Z,961.39
2017-02-19T08:11:14.217Z,961.39
2017-02-19T08:12:13.912Z,961.35
2017-02-19T08:13:14.075Z,961.33
2017-02-19T08:14:12.990Z,961.28
2017-02-19T08:15:12.567Z,961.35
2017-02-19T08:16:13.148Z,961.32
2017-02-19T08:17:12.832Z,961.30
2017-02-19T08:18:13.684Z,961.32
2017-02-19T08:19:14.359Z,961.34
2017-02-19T08:20:13.903Z,961.34
2017-02-19T08:21:12.535Z,961.32
2017-02-19T08:22:13.206Z,961.34
2017-02-19T08:23:13.906Z,961.36
2017-02-19T08:24:13.773Z,961.43
2017-02-19T08:25:12.747Z,961.39
2017-02-19T08:26:13.574Z,961.33
2017-02-19T08:27:12.329Z,961.35
2017-02-19T08:28:13.496Z,961.32
2017-02-19T08:29:13.019Z,961.33
2017-02-19T08:30:15.056Z,961.34
2017-02-19T08:31:13.697Z,961.36
2017-02-19T08:32:13.839Z,961.34
2017-02-19T08:33:12.689Z,961.34
2017-02-19T08:34:13.783Z,961.37
2017-02-19T08:35:12.364Z,961.32
2017-02-19T08:36:13.043Z,961.36
2017-02-19T08:37:13.631Z,961.34
2017-02-19T08:38:14.193Z,961.38
2017-02-19T08:39:13.038Z,961.39
2017-02-19T08:40:14.737Z,961.44
2017-02-19T08:41:13.735Z,961.40
2017-02-19T08:42:13.912Z,961.40
2017-02-19T08:43:13.047Z,961.40
2017-02-19T08:44:14.155Z,961.42
2017-02-19T08:45:14.024Z,961.38
2017-02-19T08:46:12.691Z,961.41
2017-02-19T08:47:13.260Z,961.40
2017-02-19T08:48:13.156Z,961.42
2017-02-19T08:49:13.059Z,961.40
2017-02-19T08:50:13.044Z,961.40
2017-02-19T08:51:12.748Z,961.38
2017-02-19T08:52:13.533Z,961.36
2017-02-19T08:53:17.693Z,961.42
2017-02-19T08:54:13.240Z,961.38
2017-02-19T08:55:14.416Z,961.37
2017-02-19T08:56:13.137Z,961.38
2017-02-19T08:57:12.920Z,961.35
2017-02-19T08:58:13.861Z,961.39
2017-02-19T08:59:13.539Z,961.35
2017-02-19T09:00:13.123Z,961.32
2017-02-19T09:01:12.703Z,961.36
2017-02-19T09:02:14.396Z,961.37
2017-02-19T09:03:13.897Z,961.29
2017-02-19T09:04:14.692Z,961.35
2017-02-19T09:05:14.237Z,961.34
2017-02-19T09:06:14.764Z,961.34
2017-02-19T09:07:12.518Z,961.31
2017-02-19T09:08:13.138Z,961.26
2017-02-19T09:09:13.927Z,961.28
2017-02-19T09:10:12.508Z,961.30
2017-02-19T09:11:13.088Z,961.28
2017-02-19T09:12:15.725Z,961.21
2017-02-19T09:13:15.039Z,961.20
2017-02-19T09:14:13.601Z,961.21
2017-02-19T09:15:13.379Z,961.22
2017-02-19T09:16:13.926Z,961.26
2017-02-19T09:17:11.969Z,961.24
2017-02-19T09:18:13.578Z,961.26
2017-02-19T09:19:13.499Z,961.20
2017-02-19T09:20:14.084Z,961.19
2017-02-19T09:21:13.708Z,961.18
2017-02-19T09:22:14.356Z,961.18
2017-02-19T09:23:13.896Z,961.20
2017-02-19T09:24:13.448Z,961.21
2017-02-19T09:25:14.026Z,961.19
2017-02-19T09:26:13.577Z,961.20
2017-02-19T09:27:14.947Z,961.21
2017-02-19T09:28:12.715Z,961.16
2017-02-19T09:29:13.373Z,961.17
2017-02-19T09:30:12.975Z,961.20
2017-02-19T09:31:14.685Z,961.22
2017-02-19T09:32:12.568Z,961.24
2017-02-19T09:33:13.206Z,961.22
2017-02-19T09:34:13.176Z,961.25
2017-02-19T09:35:13.909Z,961.21
2017-02-19T09:36:13.975Z,961.24
2017-02-19T09:37:13.116Z,961.26
2017-02-19T09:38:13.088Z,961.26
2017-02-19T09:39:12.779Z,961.24
2017-02-19T09:40:12.918Z,961.23
2017-02-19T09:41:12.796Z,961.28
2017-02-19T09:42:14.106Z,961.22
2017-02-19T09:43:12.845Z,961.22
2017-02-19T09:44:12.459Z,961.23
2017-02-19T09:45:12.672Z,961.23
2017-02-19T09:46:15.287Z,961.23
2017-02-19T09:47:13.906Z,961.24
2017-02-19T09:48:19.496Z,961.25
2017-02-19T09:49:13.224Z,961.26
2017-02-19T09:50:14.940Z,961.23
2017-02-19T09:51:13.142Z,961.24
2017-02-19T09:52:12.013Z,961.21
2017-02-19T09:53:12.866Z,961.22
2017-02-19T09:54:13.481Z,961.24
2017-02-19T09:55:14.086Z,961.19
2017-02-19T09:56:13.417Z,961.28
2017-02-19T09:57:14.704Z,961.22
2017-02-19T09:58:14.027Z,961.29
2017-02-19T09:59:13.742Z,961.29
2017-02-19T10:00:13.219Z,961.20
2017-02-19T10:01:12.969Z,961.24
2017-02-19T10:02:12.636Z,961.24
2017-02-19T10:03:14.289Z,961.22
2017-02-19T10:04:13.241Z,961.21
2017-02-19T10:05:12.737Z,961.20
2017-02-19T10:06:14.821Z,961.21
2017-02-19T10:07:13.366Z,961.20
2017-02-19T10:08:13.138Z,961.17
2017-02-19T10:09:12.858Z,961.15
2017-02-19T10:10:11.975Z,961.17
2017-02-19T10:11:13.641Z,961.12
2017-02-19T10:12:13.421Z,961.14
2017-02-19T10:13:14.239Z,961.12
2017-02-19T10:14:13.875Z,961.14
2017-02-19T10:15:12.469Z,961.14
2017-02-19T10:16:14.863Z,961.11
2017-02-19T10:17:12.622Z,961.08
2017-02-19T10:18:14.555Z,961.08
2017-02-19T10:19:13.285Z,961.05
2017-02-19T10:20:15.339Z,961.04
2017-02-19T10:21:14.889Z,961.05
2017-02-19T10:22:13.426Z,961.10
2017-02-19T10:23:13.930Z,961.09
2017-02-19T10:24:12.454Z,961.08
2017-02-19T10:25:13.966Z,961.14
2017-02-19T10:26:12.787Z,961.12
2017-02-19T10:27:13.582Z,961.12
2017-02-19T10:28:12.538Z,961.13
2017-02-19T10:29:13.230Z,961.16
2017-02-19T10:30:12.856Z,961.18
2017-02-19T10:31:12.436Z,961.15
2017-02-19T10:32:13.339Z,961.16
2017-02-19T10:33:13.004Z,961.15
2017-02-19T10:34:13.180Z,961.17
2017-02-19T10:35:14.133Z,961.16
2017-02-19T10:36:11.717Z,961.11
2017-02-19T10:37:14.400Z,961.10
2017-02-19T10:38:16.059Z,961.05
2017-02-19T10:39:12.700Z,961.05
2017-02-19T10:40:13.287Z,961.03
2017-02-19T10:41:12.929Z,961.06
2017-02-19T10:42:11.218Z,961.06
2017-02-19T10:43:12.839Z,961.04
2017-02-19T10:44:12.582Z,961.07
2017-02-19T10:45:14.190Z,961.08
2017-02-19T10:46:13.610Z,961.05
2017-02-19T10:47:15.277Z,961.09
2017-02-19T10:48:12.768Z,961.07
2017-02-19T10:49:13.143Z,961.11
2017-02-19T10:50:12.849Z,961.09
2017-02-19T10:51:12.616Z,961.08
2017-02-19T10:52:13.315Z,961.02
2017-02-19T10:53:14.277Z,960.96
2017-02-19T10:54:12.757Z,961.02
2017-02-19T10:55:12.751Z,961.01
2017-02-19T10:56:12.554Z,960.93
2017-02-19T10:57:13.684Z,960.95
2017-02-19T10:58:12.758Z,960.93
2017-02-19T10:59:11.729Z,960.88
2017-02-19T11:00:10.959Z,960.85
2017-02-19T11:01:12.759Z,960.85
2017-02-19T11:02:14.015Z,960.80
2017-02-19T11:03:13.110Z,960.82
2017-02-19T11:04:12.674Z,960.82
2017-02-19T11:05:13.137Z,960.83
2017-02-19T11:06:13.687Z,960.84
2017-02-19T11:07:14.288Z,960.86
2017-02-19T11:08:14.899Z,960.81
2017-02-19T11:09:12.912Z,960.81
2017-02-19T11:10:12.477Z,960.79
2017-02-19T11:11:13.106Z,960.80
2017-02-19T11:12:13.208Z,960.72
2017-02-19T11:13:13.974Z,960.69
2017-02-19T11:14:13.715Z,960.69
2017-02-19T11:15:13.246Z,960.69
2017-02-19T11:16:12.856Z,960.64
2017-02-19T11:17:13.113Z,960.60
2017-02-19T11:18:12.132Z,960.58
2017-02-19T11:19:12.136Z,960.60
2017-02-19T11:20:13.049Z,960.57
2017-02-19T11:21:14.477Z,960.59
2017-02-19T11:22:13.227Z,960.60
2017-02-19T11:23:13.803Z,960.57
2017-02-19T11:24:12.749Z,960.59
2017-02-19T11:25:14.321Z,960.60
2017-02-19T11:26:13.488Z,960.58
2017-02-19T11:27:13.197Z,960.56
2017-02-19T11:28:13.838Z,960.56
2017-02-19T11:29:12.518Z,960.59
2017-02-19T11:30:13.174Z,960.61
2017-02-19T11:31:12.668Z,960.59
2017-02-19T11:32:14.058Z,960.58
2017-02-19T11:33:13.402Z,960.61
2017-02-19T11:34:13.902Z,960.56
2017-02-19T11:35:13.653Z,960.51
2017-02-19T11:36:13.735Z,960.47
2017-02-19T11:37:13.355Z,960.49
2017-02-19T11:38:13.532Z,960.42
2017-02-19T11:39:13.467Z,960.40
2017-02-19T11:40:13.080Z,960.49
2017-02-19T11:41:12.606Z,960.45
2017-02-19T11:42:14.447Z,960.44
2017-02-19T11:43:11.139Z,960.40
2017-02-19T11:44:13.976Z,960.36
2017-02-19T11:45:12.987Z,960.34
2017-02-19T11:46:12.596Z,960.31
2017-02-19T11:47:13.912Z,960.32
2017-02-19T11:48:12.737Z,960.29
2017-02-19T11:49:12.354Z,960.29
2017-02-19T11:50:13.139Z,960.31
2017-02-19T11:51:14.766Z,960.31
2017-02-19T11:52:10.145Z,960.30
2017-02-19T11:53:12.693Z,960.26
2017-02-19T11:54:13.248Z,960.23
2017-02-19T11:55:15.706Z,960.23
2017-02-19T11:56:12.759Z,960.26
2017-02-19T11:57:13.827Z,960.23
2017-02-19T11:58:12.422Z,960.24
2017-02-19T11:59:15.635Z,960.22
2017-02-19T12:00:15.243Z,960.22
2017-02-19T12:01:15.338Z,960.17
2017-02-19T12:02:14.047Z,960.12
2017-02-19T12:03:15.926Z,960.20
2017-02-19T12:04:13.539Z,960.16
2017-02-19T12:05:14.215Z,960.11
2017-02-19T12:06:12.850Z,960.10
2017-02-19T12:07:12.060Z,960.11
2017-02-19T12:08:12.642Z,960.05
2017-02-19T12:09:12.723Z,960.02
2017-02-19T12:10:15.487Z,960.02
2017-02-19T12:11:12.558Z,959.97
2017-02-19T12:12:13.200Z,960.03
2017-02-19T12:13:10.358Z,959.95
2017-02-19T12:14:14.336Z,959.90
2017-02-19T12:15:12.819Z,959.95
2017-02-19T12:16:12.872Z,959.96
2017-02-19T12:17:12.678Z,959.90
2017-02-19T12:18:13.545Z,959.89
2017-02-19T12:19:13.214Z,959.86
2017-02-19T12:20:12.718Z,959.85
2017-02-19T12:21:15.236Z,959.85
2017-02-19T12:22:13.973Z,959.82
2017-02-19T12:23:12.550Z,959.84
2017-02-19T12:24:14.170Z,959.79
2017-02-19T12:25:12.771Z,959.76
2017-02-19T12:26:12.424Z,959.80
2017-02-19T12:27:12.557Z,959.68
2017-02-19T12:28:12.544Z,959.66